createdAt,value
2022-08-12T00:01:09.015Z,5.00
2022-08-12T00:03:42.001Z,5.95
2022-08-12T00:06:15.602Z,5.33
2022-08-12T00:08:48.085Z,4.95
2022-08-12T00:11:20.455Z,6.67
2022-08-12T00:13:52.926Z,5.35
2022-08-12T00:16:25.568Z,6.37
2022-08-12T00:18:57.878Z,4.40
2022-08-12T00:21:30.484Z,7.12
2022-08-12T00:24:03.959Z,7.42
2022-08-12T00:26:36.635Z,8.50
2022-08-12T00:29:09.293Z,6.97
2022-08-12T00:31:45.887Z,6.87
2022-08-12T00:34:21.771Z,5.97
2022-08-12T00:37:00.860Z,8.55
2022-08-12T00:39:31.258Z,7.75
2022-08-12T00:42:03.998Z,7.62
2022-08-12T00:44:34.934Z,6.40
2022-08-12T00:47:07.073Z,5.58
2022-08-12T00:49:40.047Z,3.33
2022-08-12T00:52:11.742Z,5.67
2022-08-12T00:54:45.531Z,6.37
2022-08-12T00:57:18.709Z,6.20
2022-08-12T00:59:52.439Z,7.37
2022-08-12T01:02:25.833Z,6.08
2022-08-12T01:05:00.368Z,10.43
2022-08-12T01:07:33.576Z,5.85
2022-08-12T01:10:07.597Z,8.58
2022-08-12T01:12:40.817Z,9.45
2022-08-12T01:15:14.449Z,6.12
2022-08-12T01:17:47.454Z,6.53
2022-08-12T01:20:21.059Z,9.08
2022-08-12T01:22:54.216Z,5.55
2022-08-12T01:25:28.702Z,10.18
2022-08-12T01:28:01.646Z,6.05
2022-08-12T01:30:35.094Z,4.67
2022-08-12T01:33:07.884Z,6.05
2022-08-12T01:35:41.376Z,6.70
2022-08-12T01:38:13.801Z,5.80
2022-08-12T01:40:47.308Z,9.40
2022-08-12T01:43:22.035Z,9.08
2022-08-12T01:45:57.642Z,5.35
2022-08-12T01:48:30.059Z,10.55
2022-08-12T01:51:06.219Z,9.43
2022-08-12T01:53:50.808Z,8.50
2022-08-12T01:56:11.930Z,4.70
2022-08-12T01:58:46.595Z,6.80
2022-08-12T02:01:18.121Z,6.03
2022-08-12T02:03:53.084Z,9.18
2022-08-12T02:06:27.639Z,7.05
2022-08-12T02:09:03.093Z,8.73
2022-08-12T02:11:36.399Z,7.53
2022-08-12T02:14:10.916Z,7.78
2022-08-12T02:16:45.677Z,6.35
2022-08-12T02:19:22.395Z,6.78
2022-08-12T02:21:54.041Z,6.60
2022-08-12T02:24:26.398Z,3.92
2022-08-12T02:27:00.370Z,5.70
2022-08-12T02:29:31.962Z,7.20
2022-08-12T02:32:03.518Z,5.95
2022-08-12T02:34:35.999Z,5.62
2022-08-12T02:37:07.956Z,7.90
2022-08-12T02:39:41.908Z,7.15
2022-08-12T02:42:15.738Z,6.45
2022-08-12T02:44:49.040Z,5.78
2022-08-12T02:47:59.650Z,7.58
2022-08-12T02:49:57.462Z,6.42
2022-08-12T02:52:29.721Z,6.45
2022-08-12T02:55:05.851Z,7.33
2022-08-12T02:57:37.402Z,8.53
2022-08-12T03:00:13.425Z,8.45
2022-08-12T03:02:45.817Z,5.80
2022-08-12T03:05:18.717Z,4.78
2022-08-12T03:07:59.539Z,4.10
2022-08-12T03:10:36.948Z,5.25
2022-08-12T03:13:00.401Z,5.10
2022-08-12T03:15:32.361Z,6.28
2022-08-12T03:18:26.931Z,6.15
2022-08-12T03:20:41.537Z,3.35
2022-08-12T03:23:23.138Z,6.03
2022-08-12T03:25:47.340Z,7.90
2022-08-12T03:28:23.533Z,8.23
2022-08-12T03:30:56.761Z,6.60
2022-08-12T03:33:28.359Z,4.78
2022-08-12T03:36:01.488Z,6.47
2022-08-12T03:38:37.936Z,5.60
2022-08-12T03:41:12.030Z,3.27
2022-08-12T03:43:46.637Z,3.85
2022-08-12T03:46:21.188Z,6.17
2022-08-12T03:48:53.482Z,6.90
2022-08-12T03:51:25.764Z,4.72
2022-08-12T03:53:58.213Z,4.15
2022-08-12T03:59:20.989Z,4.75
2022-08-12T04:01:54.329Z,4.70
2022-08-12T04:04:26.833Z,6.35
2022-08-12T04:06:59.367Z,5.15
2022-08-12T04:09:31.455Z,3.60
2022-08-12T04:12:04.303Z,5.80
2022-08-12T04:14:36.131Z,5.35
2022-08-12T04:17:07.386Z,6.90
2022-08-12T04:19:38.944Z,4.37
2022-08-12T04:22:11.300Z,4.95
2022-08-12T04:24:42.857Z,4.83
2022-08-12T04:27:15.481Z,3.45
2022-08-12T04:30:16.934Z,3.35
2022-08-12T04:32:19.010Z,7.12
2022-08-12T04:34:50.191Z,3.37
2022-08-12T04:37:21.546Z,4.05
2022-08-12T04:39:57.650Z,8.28
2022-08-12T04:42:28.591Z,3.90
2022-08-12T04:44:59.531Z,7.62
2022-08-12T04:47:30.946Z,4.40
2022-08-12T04:50:03.375Z,6.67
2022-08-12T04:52:35.770Z,8.18
2022-08-12T04:55:07.154Z,6.35
2022-08-12T04:57:38.616Z,4.95
2022-08-12T05:00:15.740Z,5.35
2022-08-12T05:02:46.417Z,5.22
2022-08-12T05:05:21.279Z,4.28
2022-08-12T05:07:54.546Z,7.92
2022-08-12T05:10:33.538Z,9.55
2022-08-12T05:13:01.292Z,6.50
2022-08-12T05:15:32.407Z,5.72
2022-08-12T05:18:22.965Z,6.30
2022-08-12T05:20:54.048Z,8.35
2022-08-12T05:23:25.153Z,4.60
2022-08-12T05:25:58.261Z,6.15
2022-08-12T05:28:31.669Z,6.28
2022-08-12T05:31:03.536Z,3.52
2022-08-12T05:33:36.834Z,5.58
2022-08-12T05:36:09.946Z,4.08
2022-08-12T05:38:42.370Z,6.47
2022-08-12T05:41:14.575Z,4.37
2022-08-12T05:43:45.227Z,7.12
2022-08-12T05:46:17.639Z,6.87
2022-08-12T05:48:48.570Z,7.42
2022-08-12T05:51:21.296Z,4.62
2022-08-12T05:53:52.641Z,5.45
2022-08-12T05:56:26.186Z,3.45
2022-08-12T05:58:58.288Z,6.12
2022-08-12T06:02:10.937Z,7.37
2022-08-12T06:04:02.459Z,4.50
2022-08-12T06:06:38.977Z,5.85
2022-08-12T06:09:07.307Z,5.85
2022-08-12T06:11:38.561Z,5.72
2022-08-12T06:14:11.785Z,4.83
2022-08-12T06:16:42.459Z,5.17
2022-08-12T06:19:13.814Z,7.37
2022-08-12T06:21:44.647Z,6.17
2022-08-12T06:24:15.598Z,6.58
2022-08-12T06:26:46.564Z,6.08
2022-08-12T06:30:06.594Z,5.80
2022-08-12T06:31:51.785Z,5.03
2022-08-12T06:35:26.610Z,4.17
2022-08-12T06:36:55.741Z,6.10
2022-08-12T06:39:27.118Z,6.58
2022-08-12T06:42:27.753Z,6.90
2022-08-12T06:44:33.439Z,7.28
2022-08-12T06:47:05.812Z,4.22
2022-08-12T06:49:38.091Z,4.60
2022-08-12T06:52:09.225Z,4.65
2022-08-12T06:54:40.660Z,4.95
2022-08-12T06:57:57.370Z,3.75
2022-08-12T06:59:46.220Z,5.35
2022-08-12T07:02:17.281Z,4.45
2022-08-12T07:04:49.648Z,6.97
2022-08-12T07:07:22.593Z,7.53
2022-08-12T07:10:05.527Z,3.80
2022-08-12T07:12:26.947Z,6.53
2022-08-12T07:14:59.277Z,4.72
2022-08-12T07:17:31.755Z,6.17
2022-08-12T07:20:04.676Z,6.78
2022-08-12T07:22:35.584Z,8.90
2022-08-12T07:25:08.388Z,6.20
2022-08-12T07:27:42.260Z,7.65
2022-08-12T07:30:15.593Z,5.62
2022-08-12T07:32:47.927Z,6.37
2022-08-12T07:35:20.968Z,4.83
2022-08-12T07:37:53.982Z,5.37
2022-08-12T07:40:26.028Z,3.22
2022-08-12T07:42:58.085Z,4.30
2022-08-12T07:45:29.158Z,6.30
2022-08-12T07:48:00.344Z,5.22
2022-08-12T07:50:42.584Z,5.25
2022-08-12T07:53:10.320Z,5.08
2022-08-12T07:55:41.182Z,5.28
2022-08-12T07:58:12.518Z,4.20
2022-08-12T08:06:18.871Z,4.08
2022-08-12T08:08:48.723Z,4.15
2022-08-12T08:11:21.184Z,6.20
2022-08-12T08:13:52.599Z,5.03
2022-08-12T08:16:23.643Z,4.80
2022-08-12T08:18:55.808Z,5.65
2022-08-12T08:21:28.025Z,5.65
2022-08-12T08:24:05.098Z,6.28
2022-08-12T08:26:33.404Z,6.15
2022-08-12T08:29:04.337Z,3.42
2022-08-12T08:31:35.979Z,4.47
2022-08-12T08:34:47.388Z,3.65
2022-08-12T08:36:41.548Z,4.17
2022-08-12T08:39:17.582Z,5.25
2022-08-12T08:42:16.577Z,4.92
2022-08-12T08:44:22.338Z,4.05
2022-08-12T08:46:55.093Z,4.35
2022-08-12T08:49:27.062Z,5.67
2022-08-12T08:51:57.906Z,3.30
2022-08-12T08:54:28.875Z,3.60
2022-08-12T08:56:59.757Z,3.33
2022-08-12T08:59:31.028Z,4.95
2022-08-12T09:02:03.884Z,8.45
2022-08-12T09:05:12.546Z,4.17
2022-08-12T09:07:16.851Z,4.67
2022-08-12T09:10:02.271Z,5.65
2022-08-12T09:12:14.710Z,4.35
2022-08-12T09:14:51.188Z,4.53
2022-08-12T09:17:21.706Z,2.27
2022-08-12T09:19:58.046Z,6.40
2022-08-12T09:27:57.863Z,6.55
2022-08-12T09:30:08.857Z,8.00
2022-08-12T09:33:05.274Z,7.85
2022-08-12T09:35:18.489Z,6.95
2022-08-12T09:37:57.936Z,4.62
2022-08-12T09:41:01.757Z,5.10
2022-08-12T09:43:16.939Z,6.75
2022-08-12T09:46:11.105Z,4.62
2022-08-12T09:48:01.068Z,7.25
2022-08-12T09:50:33.594Z,5.10
2022-08-12T09:53:15.411Z,5.30
2022-08-12T09:56:07.359Z,4.60
2022-08-12T09:58:57.395Z,4.20
2022-08-12T10:00:53.047Z,5.67
2022-08-12T10:03:31.942Z,5.15
2022-08-12T10:06:26.564Z,5.85
2022-08-12T10:08:34.278Z,8.63
2022-08-12T10:13:44.937Z,5.10
2022-08-12T10:16:22.361Z,6.90
2022-08-12T10:18:55.011Z,5.40
2022-08-12T10:21:35.758Z,3.67
2022-08-12T10:24:01.406Z,5.65
2022-08-12T10:26:39.423Z,4.83
2022-08-12T10:29:27.723Z,5.00
2022-08-12T10:32:20.182Z,4.17
2022-08-12T10:34:26.010Z,6.67
2022-08-12T10:36:52.061Z,7.80
2022-08-12T10:40:03.290Z,4.42
2022-08-12T10:41:59.828Z,6.40
2022-08-12T10:44:31.014Z,5.55
2022-08-12T10:47:02.030Z,7.42
2022-08-12T10:50:02.439Z,7.05
2022-08-12T10:52:33.973Z,5.62
2022-08-12T10:54:43.799Z,8.50
2022-08-12T10:57:18.534Z,5.72
2022-08-12T11:00:31.125Z,5.10
2022-08-12T11:04:18.211Z,7.28
2022-08-12T11:04:58.935Z,10.25
2022-08-12T11:08:37.978Z,6.12
2022-08-12T11:10:04.218Z,8.60
2022-08-12T11:12:58.133Z,7.08
2022-08-12T11:15:19.431Z,5.67
2022-08-12T11:17:51.902Z,10.03
2022-08-12T11:20:15.153Z,7.60
2022-08-12T11:22:57.777Z,7.67
2022-08-12T11:25:19.811Z,7.15
2022-08-12T11:27:54.326Z,9.73
2022-08-12T11:30:31.046Z,6.65
2022-08-12T11:32:57.611Z,8.38
2022-08-12T11:35:29.685Z,7.62
2022-08-12T11:38:03.576Z,5.80
2022-08-12T11:40:34.623Z,10.00
2022-08-12T11:43:18.845Z,9.38
2022-08-12T11:45:39.038Z,8.20
2022-08-12T11:48:10.178Z,8.93
2022-08-12T11:50:44.562Z,13.08
2022-08-12T11:53:58.197Z,9.65
2022-08-12T11:55:47.681Z,7.55
2022-08-12T11:59:02.983Z,11.35
2022-08-12T12:03:23.277Z,8.98
2022-08-12T12:05:54.200Z,16.93
2022-08-12T12:08:41.123Z,12.85
2022-08-12T12:11:00.687Z,15.28
2022-08-12T12:14:07.657Z,12.03
2022-08-12T12:16:05.908Z,12.35
2022-08-12T12:18:36.640Z,16.67
2022-08-12T12:21:10.193Z,8.98
2022-08-12T12:23:47.192Z,10.08
2022-08-12T12:26:35.095Z,11.53
2022-08-12T12:28:54.191Z,14.53
2022-08-12T12:32:11.247Z,9.60
2022-08-12T12:33:58.020Z,14.07
2022-08-12T12:36:27.964Z,14.73
2022-08-12T12:38:55.980Z,12.15
2022-08-12T12:42:41.464Z,13.20
2022-08-12T12:44:03.955Z,9.60
2022-08-12T12:46:31.359Z,9.58
2022-08-12T12:49:10.826Z,10.48
2022-08-12T12:51:48.734Z,16.15
2022-08-12T12:54:11.036Z,11.95
2022-08-12T12:56:43.536Z,10.58
2022-08-12T12:59:54.913Z,11.80
2022-08-12T13:01:47.236Z,13.90
2022-08-12T13:04:20.126Z,8.28
2022-08-12T13:06:53.541Z,10.43
2022-08-12T13:09:24.292Z,12.58
2022-08-12T13:11:56.555Z,9.75
2022-08-12T13:14:31.207Z,10.08
2022-08-12T13:17:02.674Z,10.30
2022-08-12T13:19:44.485Z,13.90
2022-08-12T13:22:15.968Z,10.03
2022-08-12T13:24:52.223Z,11.08
2022-08-12T13:27:22.215Z,9.28
2022-08-12T13:29:53.378Z,9.28
2022-08-12T13:32:31.278Z,8.53
2022-08-12T13:35:19.840Z,11.38
2022-08-12T13:37:44.030Z,10.93
2022-08-12T13:40:12.558Z,9.73
2022-08-12T13:42:45.940Z,9.83
2022-08-12T13:45:17.168Z,10.30
2022-08-12T13:47:50.537Z,8.85
2022-08-12T13:50:22.667Z,9.93
2022-08-12T13:53:06.134Z,13.22
2022-08-12T13:55:34.522Z,12.33
2022-08-12T13:58:12.559Z,16.42
2022-08-12T14:00:42.937Z,13.72
2022-08-12T14:03:15.131Z,17.98
2022-08-12T14:05:46.721Z,15.10
2022-08-12T14:08:21.756Z,17.42
2022-08-12T14:10:56.123Z,12.58
2022-08-12T14:14:03.230Z,11.35
2022-08-12T14:16:04.648Z,13.03
2022-08-12T14:18:37.472Z,18.07
2022-08-12T14:21:18.206Z,17.45
2022-08-12T14:24:04.638Z,17.67
2022-08-12T14:26:23.970Z,17.27
2022-08-12T14:28:57.654Z,17.92
2022-08-12T14:31:31.954Z,16.32
2022-08-12T14:34:05.110Z,17.90
2022-08-12T14:36:38.599Z,18.30
2022-08-12T14:39:11.051Z,19.62
2022-08-12T14:41:48.468Z,17.80
2022-08-12T14:44:59.287Z,19.70
2022-08-12T14:46:50.256Z,18.70
2022-08-12T14:50:01.396Z,16.75
2022-08-12T14:53:13.595Z,18.85
2022-08-12T14:57:19.363Z,13.65
2022-08-12T14:59:57.342Z,17.98
2022-08-12T15:02:10.446Z,18.12
2022-08-12T15:04:41.246Z,16.75
2022-08-12T15:07:43.845Z,14.47
2022-08-12T15:09:47.324Z,11.08
2022-08-12T15:12:18.571Z,13.25
2022-08-12T15:14:50.677Z,12.07
2022-08-12T15:17:37.916Z,16.90
2022-08-12T15:20:27.833Z,13.18
2022-08-12T15:22:38.834Z,11.45
2022-08-12T15:24:58.082Z,10.50
2022-08-12T15:28:03.725Z,9.05
2022-08-12T15:30:02.526Z,11.40
2022-08-12T15:32:33.759Z,11.10
2022-08-12T15:35:04.724Z,7.87
2022-08-12T15:38:09.028Z,9.93
2022-08-12T15:40:10.574Z,10.65
2022-08-12T15:42:41.518Z,7.33
2022-08-12T15:45:16.926Z,10.82
2022-08-12T15:47:49.755Z,10.45
2022-08-12T15:50:23.076Z,8.55
2022-08-12T15:52:50.663Z,6.83
2022-08-12T15:55:24.049Z,7.83
2022-08-12T15:57:58.954Z,10.88
2022-08-12T16:00:33.575Z,7.97
2022-08-12T16:03:13.627Z,10.25
2022-08-12T16:06:16.785Z,9.90
2022-08-12T16:08:27.237Z,9.43
2022-08-12T16:10:49.228Z,8.15
2022-08-12T16:13:25.261Z,6.87
2022-08-12T16:16:02.608Z,10.13
2022-08-12T16:18:27.960Z,8.88
2022-08-12T16:21:00.445Z,10.43
2022-08-12T16:23:51.266Z,9.73
2022-08-12T16:26:14.237Z,8.95
2022-08-12T16:28:41.125Z,8.48
2022-08-12T16:31:23.035Z,7.70
2022-08-12T16:33:59.028Z,9.85
2022-08-12T16:36:26.561Z,10.55
2022-08-12T16:38:57.722Z,10.85
2022-08-12T16:41:39.708Z,7.95
2022-08-12T16:44:06.679Z,9.70
2022-08-12T16:46:57.555Z,8.83
2022-08-12T16:49:23.081Z,7.25
2022-08-12T16:51:56.035Z,9.00
2022-08-12T16:54:26.870Z,8.00
2022-08-12T16:57:00.276Z,11.60
2022-08-12T16:59:54.523Z,9.95
2022-08-12T17:02:06.646Z,10.13
2022-08-12T17:04:40.461Z,7.47
2022-08-12T17:07:15.585Z,8.88
2022-08-12T17:09:50.729Z,8.23
2022-08-12T17:12:23.118Z,12.03
2022-08-12T17:14:55.584Z,9.93
2022-08-12T17:17:39.186Z,7.83
2022-08-12T17:20:34.925Z,7.83
2022-08-12T17:22:35.962Z,11.53
2022-08-12T17:25:14.711Z,7.42
2022-08-12T17:27:44.992Z,7.80
2022-08-12T17:30:17.272Z,9.50
2022-08-12T17:32:49.670Z,9.50
2022-08-12T17:35:23.361Z,8.55
2022-08-12T17:37:56.143Z,9.20
2022-08-12T17:40:35.585Z,10.50
2022-08-12T17:43:03.665Z,8.55
2022-08-12T17:45:35.955Z,10.00
2022-08-12T17:48:10.455Z,9.70
2022-08-12T17:50:45.992Z,9.28
2022-08-12T17:53:20.887Z,9.85
2022-08-12T17:55:54.059Z,8.05
2022-08-12T17:58:35.778Z,11.03
2022-08-12T18:01:02.808Z,12.03
2022-08-12T18:04:04.997Z,8.55
2022-08-12T18:06:14.137Z,9.13
2022-08-12T18:08:54.545Z,9.73
2022-08-12T18:11:38.375Z,7.45
2022-08-12T18:13:52.159Z,10.20
2022-08-12T18:16:24.515Z,8.75
2022-08-12T18:18:59.487Z,8.60
2022-08-12T18:21:27.993Z,8.85
2022-08-12T18:24:02.019Z,6.53
2022-08-12T18:26:34.259Z,9.25
2022-08-12T18:29:05.813Z,11.10
2022-08-12T18:31:44.193Z,8.85
2022-08-12T18:34:10.802Z,9.60
2022-08-12T18:36:41.787Z,8.33
2022-08-12T18:39:19.057Z,7.42
2022-08-12T18:41:48.429Z,7.72
2022-08-12T18:44:20.466Z,7.92
2022-08-12T18:49:46.106Z,9.08
2022-08-12T18:52:19.312Z,8.63
2022-08-12T18:54:54.831Z,9.23
2022-08-12T18:58:07.005Z,8.43
2022-08-12T19:00:06.994Z,6.85
2022-08-12T19:02:36.527Z,9.05
2022-08-12T19:05:10.137Z,7.92
2022-08-12T19:07:49.405Z,7.30
2022-08-12T19:10:18.690Z,8.37
2022-08-12T19:12:56.959Z,10.63
2022-08-12T19:15:27.435Z,8.35
2022-08-12T19:18:03.059Z,8.25
2022-08-12T19:20:34.324Z,8.33
2022-08-12T19:23:07.830Z,7.35
2022-08-12T19:26:00.672Z,10.00
2022-08-12T19:28:11.550Z,9.10
2022-08-12T19:30:45.366Z,6.40
2022-08-12T19:33:19.778Z,9.33
2022-08-12T19:36:24.481Z,9.65
2022-08-12T19:38:27.077Z,6.83
2022-08-12T19:40:59.049Z,11.43
2022-08-12T19:43:59.315Z,7.85
2022-08-12T19:46:05.734Z,9.80
2022-08-12T19:48:36.979Z,7.05
2022-08-12T19:51:22.715Z,7.62
2022-08-12T19:53:57.998Z,7.28
2022-08-12T19:56:13.721Z,8.45
2022-08-12T19:58:48.779Z,8.40
2022-08-12T20:01:20.107Z,8.48
2022-08-12T20:03:59.102Z,7.62
2022-08-12T20:06:28.377Z,9.15
2022-08-12T20:08:57.810Z,7.80
2022-08-12T20:12:13.791Z,9.88
2022-08-12T20:14:02.553Z,8.38
2022-08-12T20:19:10.970Z,6.37
2022-08-12T20:21:42.610Z,6.70
2022-08-12T20:24:15.932Z,9.10
2022-08-12T20:26:48.966Z,6.17
2022-08-12T20:29:22.589Z,7.25
2022-08-12T20:31:53.866Z,9.08
2022-08-12T20:34:26.051Z,10.35
2022-08-12T20:37:04.799Z,8.35
2022-08-12T20:39:52.531Z,8.80
2022-08-12T20:42:07.627Z,10.55
2022-08-12T20:44:42.282Z,9.10
2022-08-12T20:47:20.221Z,8.95
2022-08-12T20:49:46.912Z,5.97
2022-08-12T20:52:19.436Z,6.08
2022-08-12T20:54:51.568Z,6.25
2022-08-12T20:57:24.077Z,9.95
2022-08-12T20:59:55.290Z,7.83
2022-08-12T21:02:30.716Z,7.40
2022-08-12T21:05:02.495Z,8.65
2022-08-12T21:07:34.866Z,5.60
2022-08-12T21:10:08.570Z,8.38
2022-08-12T21:12:40.593Z,6.15
2022-08-12T21:15:23.407Z,7.15
2022-08-12T21:18:01.067Z,6.53
2022-08-12T21:20:22.454Z,6.60
2022-08-12T21:22:51.543Z,10.58
2022-08-12T21:25:22.407Z,7.85
2022-08-12T21:27:58.819Z,8.50
2022-08-12T21:30:34.048Z,8.38
2022-08-12T21:32:58.405Z,6.17
2022-08-12T21:35:29.546Z,7.72
2022-08-12T21:38:01.804Z,6.45
2022-08-12T21:40:36.994Z,8.70
2022-08-12T21:43:06.201Z,5.55
2022-08-12T21:45:47.299Z,7.08
2022-08-12T21:48:12.214Z,6.10
2022-08-12T21:50:43.664Z,6.08
2022-08-12T21:53:15.118Z,7.25
2022-08-12T21:55:48.002Z,8.58
2022-08-12T21:58:21.604Z,8.85
2022-08-12T22:00:54.124Z,6.62
2022-08-12T22:04:02.694Z,9.20
2022-08-12T22:06:00.163Z,8.73
2022-08-12T22:08:33.769Z,7.25
2022-08-12T22:11:05.530Z,10.40
2022-08-12T22:14:07.937Z,10.63
2022-08-12T22:16:10.576Z,7.67
2022-08-12T22:18:50.231Z,7.58
2022-08-12T22:21:24.513Z,8.70
2022-08-12T22:24:04.433Z,5.83
2022-08-12T22:26:29.362Z,8.50
2022-08-12T22:28:58.081Z,9.28
2022-08-12T22:31:29.338Z,11.65
2022-08-12T22:34:02.762Z,9.48
2022-08-12T22:36:33.824Z,7.55
2022-08-12T22:39:07.356Z,10.05
2022-08-12T22:41:42.606Z,8.40
2022-08-12T22:44:15.676Z,8.83
2022-08-12T22:46:53.138Z,9.70
2022-08-12T22:49:44.766Z,10.38
2022-08-12T22:52:03.236Z,10.73
2022-08-12T22:54:36.939Z,8.30
2022-08-12T22:57:11.954Z,8.33
2022-08-12T22:59:51.090Z,10.18
2022-08-12T23:02:13.962Z,8.58
2022-08-12T23:04:44.796Z,7.22
2022-08-12T23:07:16.998Z,9.88
2022-08-12T23:09:49.242Z,7.10
2022-08-12T23:12:22.707Z,11.45
2022-08-12T23:14:54.109Z,12.63
2022-08-12T23:17:40.242Z,9.85
2022-08-12T23:19:57.599Z,10.43
2022-08-12T23:22:36.129Z,8.55
2022-08-12T23:25:00.909Z,12.20
2022-08-12T23:27:44.156Z,11.78
2022-08-12T23:30:18.402Z,9.08
2022-08-12T23:32:38.104Z,8.10
2022-08-12T23:35:10.099Z,9.25
2022-08-12T23:37:47.814Z,9.75
2022-08-12T23:40:17.815Z,9.20
2022-08-12T23:42:48.289Z,8.50
2022-08-12T23:45:31.712Z,8.30
2022-08-12T23:47:55.138Z,10.82
2022-08-12T23:50:33.780Z,10.30
2022-08-12T23:53:03.155Z,11.28
2022-08-12T23:55:40.530Z,11.48
2022-08-12T23:58:20.905Z,11.50
